Time;durP1;ratioP1;P1;durP2;ratioP2;P2;SDS_P1;SDS_P2;PMS_P1;PMS_P2;Temp;Humidity;BMP_temperature;BMP_pressure;BME280_temperature;BME280_humidity;BME280_pressure;Samples;Min_cycle;Max_cycle;Signal;HPM_P1;HPM_P2
2023/10/07 00:00:47;;;;;;;29.02;24.40;;;16.40;95.70;;;;;;4994650;28;20708;-89
2023/10/07 00:03:25;;;;;;;19.48;15.90;;;16.40;95.80;;;;;;4994336;28;20170;-89
2023/10/07 00:06:11;;;;;;;22.85;16.63;;;16.40;95.80;;;;;;4993484;28;20210;-89
2023/10/07 00:08:50;;;;;;;24.55;21.92;;;16.30;95.90;;;;;;4993495;28;20190;-90
2023/10/07 00:11:34;;;;;;;25.88;23.33;;;16.40;95.90;;;;;;4992847;28;20182;-91
2023/10/07 00:14:29;;;;;;;23.33;17.50;;;16.40;96.00;;;;;;4993961;28;20205;-90
2023/10/07 00:17:50;;;;;;;20.67;18.50;;;16.40;96.00;;;;;;4993677;28;20174;-91
2023/10/07 00:21:12;;;;;;;30.55;25.50;;;16.40;96.00;;;;;;4992929;28;20216;-90
2023/10/07 00:24:05;;;;;;;31.52;27.80;;;16.40;96.00;;;;;;4993336;28;20228;-91
2023/10/07 00:26:39;;;;;;;22.77;20.55;;;16.30;96.10;;;;;;4992567;28;20178;-90
2023/10/07 00:29:41;;;;;;;22.05;19.05;;;16.40;96.10;;;;;;4992937;28;20208;-90
2023/10/07 00:35:54;;;;;;;30.23;24.35;;;16.40;96.20;;;;;;4992712;28;20689;-90
2023/10/07 00:44:44;;;;;;;25.40;20.52;;;16.30;96.30;;;;;;4992099;28;20198;-90
2023/10/07 00:47:18;;;;;;;21.95;19.42;;;16.40;96.30;;;;;;4970667;28;20201;-90
2023/10/07 00:53:45;;;;;;;31.88;20.05;;;16.40;96.30;;;;;;4995650;28;20178;-90
2023/10/07 01:09:39;;;;;;;21.60;18.73;;;16.40;96.40;;;;;;4991759;28;20193;-90
2023/10/07 01:12:45;;;;;;;22.75;18.55;;;16.40;96.40;;;;;;4982287;28;20210;-90
2023/10/07 01:15:59;;;;;;;23.33;18.90;;;16.40;96.40;;;;;;4997809;28;20193;-90
2023/10/07 04:32:52;;;;;;;30.83;20.40;;;14.90;96.50;;;;;;4973780;28;20210;-91
2023/10/07 04:46:56;;;;;;;28.00;16.95;;;14.80;96.40;;;;;;4974086;28;20212;-90
2023/10/07 04:56:39;;;;;;;38.25;16.90;;;14.80;96.30;;;;;;4952696;28;20270;-90
2023/10/07 05:11:02;;;;;;;;;;;;;;;;;;;;;
2023/10/07 05:22:06;;;;;;;24.85;17.30;;;14.80;95.90;;;;;;4892517;29;20728;-90
2023/10/07 06:44:47;;;;;;;16.25;14.48;;;14.60;94.90;;;;;;4974381;28;20230;-90
2023/10/07 06:51:13;;;;;;;19.98;15.55;;;14.70;95.10;;;;;;4976647;28;20246;-90
2023/10/07 06:53:23;;;;;;;20.27;15.82;;;14.70;95.10;;;;;;4971587;28;20217;-90
2023/10/07 06:55:55;;;;;;;16.80;15.05;;;14.60;95.20;;;;;;4974915;28;20634;-90
2023/10/07 06:58:31;;;;;;;22.98;15.43;;;14.70;95.30;;;;;;4975583;28;20661;-90
2023/10/07 07:01:16;;;;;;;23.77;14.15;;;14.60;95.30;;;;;;4975421;28;20250;-90
2023/10/07 07:03:52;;;;;;;15.68;13.90;;;14.50;95.40;;;;;;4974738;28;20659;-90
2023/10/07 07:06:34;;;;;;;19.92;13.35;;;14.50;95.50;;;;;;4976061;28;20178;-92
2023/10/07 07:09:00;;;;;;;18.83;13.60;;;14.50;95.50;;;;;;4974715;28;20187;-90
2023/10/07 07:15:36;;;;;;;24.95;14.68;;;14.50;95.60;;;;;;4962702;28;20289;-90
2023/10/07 07:18:14;;;;;;;16.15;14.10;;;14.50;95.60;;;;;;4974695;28;20197;-90
2023/10/07 07:24:53;;;;;;;;;;;;;;;;;;;;;
2023/10/07 07:27:52;;;;;;;21.48;15.00;;;14.50;95.70;;;;;;4906391;28;20186;-92
2023/10/07 07:30:36;;;;;;;18.95;14.68;;;14.40;95.80;;;;;;4975067;28;20210;-93
2023/10/07 07:36:38;;;;;;;23.40;21.23;;;14.50;95.90;;;;;;4965259;28;20179;-92
2023/10/07 07:46:11;;;;;;;22.75;20.75;;;14.60;96.00;;;;;;4965288;28;20714;-92
2023/10/07 07:48:59;;;;;;;16.63;14.80;;;14.50;96.00;;;;;;4976369;28;20290;-92
2023/10/07 07:52:19;;;;;;;24.27;19.95;;;14.60;96.00;;;;;;4974475;28;20179;-93
2023/10/07 08:13:37;;;;;;;17.27;14.65;;;14.80;96.10;;;;;;818122;23;20478;-91
2023/10/07 08:17:08;;;;;;;25.55;23.23;;;14.80;96.20;;;;;;4969548;28;20234;-91
2023/10/07 08:20:36;;;;;;;;;;;;;;;;;;;;;
2023/10/07 08:31:27;;;;;;;;;;;;;;;;;;;;;
2023/10/07 08:48:38;;;;;;;19.73;17.73;;;14.70;96.10;;;;;;4882198;29;20174;-91
2023/10/07 10:08:27;;;;;;;19.70;18.25;;;14.70;95.40;;;;;;4960737;28;20673;-91
2023/10/07 10:10:58;;;;;;;20.02;18.35;;;14.70;95.30;;;;;;4977330;28;20313;-92
2023/10/07 10:13:29;;;;;;;20.65;19.15;;;14.60;95.20;;;;;;4976419;28;20202;-91
2023/10/07 10:16:00;;;;;;;20.27;18.77;;;14.60;95.20;;;;;;4984626;28;20187;-92
2023/10/07 10:18:40;;;;;;;20.42;19.08;;;14.50;95.20;;;;;;4977205;28;20171;-92
2023/10/07 10:21:12;;;;;;;25.80;23.98;;;14.60;95.10;;;;;;4975752;28;20682;-92
2023/10/07 10:23:40;;;;;;;25.35;23.55;;;14.60;95.10;;;;;;4975761;28;20175;-91
2023/10/07 10:26:20;;;;;;;24.83;23.02;;;14.50;95.00;;;;;;4975489;28;20183;-91
2023/10/07 10:29:00;;;;;;;23.02;21.35;;;14.60;95.10;;;;;;4976052;28;20170;-92
2023/10/07 10:31:33;;;;;;;21.60;20.10;;;14.60;95.10;;;;;;4976947;28;20167;-92
2023/10/07 10:34:04;;;;;;;26.23;23.92;;;14.70;95.00;;;;;;4976038;28;20671;-92
2023/10/07 10:36:31;;;;;;;25.45;23.45;;;14.70;95.00;;;;;;4975239;28;20174;-92
2023/10/07 10:39:00;;;;;;;22.02;20.17;;;14.70;95.00;;;;;;4975168;28;20647;-92
2023/10/07 10:41:27;;;;;;;20.65;19.27;;;14.80;95.00;;;;;;4976351;28;20262;-91
2023/10/07 10:44:03;;;;;;;25.48;23.25;;;14.80;95.00;;;;;;4976413;28;20631;-92
2023/10/07 10:46:28;;;;;;;25.55;23.63;;;14.80;95.00;;;;;;4975182;28;20198;-91
2023/10/07 10:48:54;;;;;;;25.38;23.80;;;14.80;95.00;;;;;;4979752;28;20171;-92
2023/10/07 10:51:20;;;;;;;22.25;20.85;;;14.80;95.00;;;;;;4978534;28;20643;-92
2023/10/07 10:53:47;;;;;;;21.90;20.38;;;14.80;95.00;;;;;;4978471;28;20170;-91
2023/10/07 10:56:13;;;;;;;23.45;21.80;;;14.80;95.00;;;;;;4976387;28;20318;-92
2023/10/07 10:58:39;;;;;;;23.67;22.17;;;14.80;95.10;;;;;;4974883;28;20651;-92
2023/10/07 11:01:07;;;;;;;21.98;20.58;;;14.90;95.10;;;;;;4978377;28;20203;-91
2023/10/07 11:03:33;;;;;;;22.98;21.33;;;14.90;95.10;;;;;;4976440;28;20201;-92
2023/10/07 11:06:00;;;;;;;22.13;20.50;;;14.90;95.00;;;;;;4978003;28;20191;-91
2023/10/07 11:08:26;;;;;;;22.77;21.08;;;14.90;95.00;;;;;;4975043;28;20302;-93
2023/10/07 11:10:57;;;;;;;24.00;22.38;;;14.80;95.00;;;;;;4988370;28;20174;-92
2023/10/07 11:13:24;;;;;;;25.80;23.67;;;14.80;95.00;;;;;;4974539;28;20174;-90
2023/10/07 11:15:53;;;;;;;24.58;22.77;;;14.60;94.90;;;;;;4987473;28;20337;-92
2023/10/07 11:18:19;;;;;;;22.20;20.70;;;14.70;95.00;;;;;;4974935;28;20179;-89
2023/10/07 11:20:45;;;;;;;21.40;19.90;;;14.80;95.00;;;;;;4974365;28;20679;-91
2023/10/07 11:23:15;;;;;;;21.45;20.00;;;14.80;95.00;;;;;;4974412;28;20181;-90
2023/10/07 11:25:42;;;;;;;21.58;20.08;;;14.70;95.00;;;;;;4975508;28;20561;-89
2023/10/07 11:28:09;;;;;;;20.92;19.63;;;14.70;94.90;;;;;;4974561;28;20545;-89
2023/10/07 11:30:47;;;;;;;20.70;19.35;;;14.60;94.90;;;;;;4974183;28;20189;-89
2023/10/07 11:33:16;;;;;;;20.65;19.45;;;14.50;95.00;;;;;;4975580;28;20208;-90
2023/10/07 11:35:43;;;;;;;20.20;19.00;;;14.60;95.00;;;;;;4974401;28;20673;-90
2023/10/07 11:38:11;;;;;;;20.90;19.38;;;14.70;95.00;;;;;;4975351;28;20179;-91
2023/10/07 11:40:37;;;;;;;19.73;18.60;;;14.70;95.00;;;;;;4975191;28;20209;-90
2023/10/07 11:43:08;;;;;;;19.33;18.02;;;14.60;95.00;;;;;;4974171;28;20710;-91
2023/10/07 11:45:36;;;;;;;19.17;17.98;;;14.50;95.00;;;;;;4974204;28;20281;-89
2023/10/07 11:48:04;;;;;;;19.48;18.33;;;14.50;95.10;;;;;;4974022;28;20224;-90
2023/10/07 11:50:34;;;;;;;19.33;18.23;;;14.40;95.00;;;;;;4973838;28;20190;-90
2023/10/07 11:53:01;;;;;;;19.00;17.80;;;14.40;95.10;;;;;;4973792;28;20261;-89
2023/10/07 11:55:27;;;;;;;18.30;17.20;;;14.30;95.00;;;;;;4973689;28;20253;-91
2023/10/07 11:57:53;;;;;;;18.13;17.10;;;14.40;95.20;;;;;;4973746;28;20190;-91
2023/10/07 12:00:28;;;;;;;18.40;17.33;;;14.40;95.20;;;;;;4973972;28;20214;-90
2023/10/07 12:03:00;;;;;;;17.63;16.63;;;14.50;95.20;;;;;;4973747;28;20577;-91
2023/10/07 12:05:27;;;;;;;17.50;16.40;;;14.40;95.20;;;;;;4974627;28;20190;-91
2023/10/07 12:08:01;;;;;;;18.67;17.35;;;14.40;95.20;;;;;;4974264;28;20198;-91
2023/10/07 12:10:28;;;;;;;16.95;15.95;;;14.50;95.30;;;;;;4980038;28;20242;-93
2023/10/07 12:12:53;;;;;;;16.83;15.82;;;14.40;95.20;;;;;;4976996;28;20179;-93
2023/10/07 12:15:19;;;;;;;17.65;16.75;;;14.40;95.20;;;;;;4976167;28;20198;-93
2023/10/07 12:17:45;;;;;;;18.52;17.42;;;14.30;95.20;;;;;;4975710;28;20182;-93
2023/10/07 12:20:15;;;;;;;17.90;16.90;;;14.20;95.10;;;;;;4976859;28;20202;-94
2023/10/07 12:22:42;;;;;;;16.65;15.75;;;14.30;95.10;;;;;;4975784;28;20175;-93
2023/10/07 12:25:14;;;;;;;17.48;16.48;;;14.30;95.10;;;;;;4977029;28;20206;-93
2023/10/07 12:27:40;;;;;;;18.17;17.10;;;14.40;95.10;;;;;;4977053;28;20281;-91
2023/10/07 12:30:10;;;;;;;18.27;16.98;;;14.30;95.00;;;;;;4976617;28;20174;-94
2023/10/07 12:32:42;;;;;;;18.45;17.35;;;14.20;95.00;;;;;;4979334;28;20175;-92
2023/10/07 12:35:09;;;;;;;18.95;17.75;;;14.30;95.00;;;;;;4978088;28;20604;-93
2023/10/07 12:37:38;;;;;;;19.15;17.83;;;14.20;94.90;;;;;;4974223;28;20182;-92
2023/10/07 12:40:05;;;;;;;18.33;17.27;;;14.20;94.90;;;;;;4975271;28;20207;-91
2023/10/07 12:42:32;;;;;;;18.73;17.52;;;14.30;94.90;;;;;;4976275;28;20170;-91
2023/10/07 13:15:37;;;;;;;19.77;18.67;;;14.40;94.70;;;;;;5010742;23;20435;-95
2023/10/07 13:18:08;;;;;;;17.40;16.33;;;14.40;94.70;;;;;;5002704;28;20163;-95
2023/10/07 13:43:55;;;;;;;18.20;17.20;;;14.30;94.40;;;;;;3408025;23;20224;-93
2023/10/07 13:46:12;;;;;;;20.35;19.15;;;14.20;94.30;;;;;;4985544;28;20195;-95
2023/10/07 13:48:43;;;;;;;19.08;18.05;;;14.20;94.30;;;;;;4998945;28;20171;-95
2023/10/07 13:51:10;;;;;;;18.73;17.73;;;14.30;94.30;;;;;;4998902;28;20223;-91
2023/10/07 13:53:51;;;;;;;18.50;17.40;;;14.20;94.30;;;;;;4998790;28;20187;-95
2023/10/07 13:56:32;;;;;;;19.15;18.05;;;14.20;94.30;;;;;;4998745;28;20156;-95
2023/10/07 13:59:03;;;;;;;19.25;18.17;;;14.20;94.20;;;;;;4998823;28;20147;-93
2023/10/07 14:01:29;;;;;;;18.48;17.38;;;14.20;94.20;;;;;;4998776;28;20190;-93
2023/10/07 14:03:55;;;;;;;19.40;18.15;;;14.10;94.10;;;;;;4998535;28;20158;-93
2023/10/07 14:06:21;;;;;;;19.55;18.40;;;14.10;94.10;;;;;;4998681;28;20167;-95
2023/10/07 14:08:50;;;;;;;18.08;17.05;;;14.10;94.20;;;;;;4998619;28;20167;-94
2023/10/07 14:11:15;;;;;;;19.05;17.90;;;14.10;94.10;;;;;;4998574;28;20148;-94
2023/10/07 14:13:46;;;;;;;26.15;24.05;;;14.10;94.20;;;;;;4998410;28;20148;-94
2023/10/07 14:16:17;;;;;;;22.67;21.02;;;14.00;94.10;;;;;;4998471;28;20218;-92
2023/10/07 14:18:44;;;;;;;20.23;18.92;;;14.00;94.10;;;;;;4998402;28;20171;-94
2023/10/07 14:21:25;;;;;;;19.10;17.70;;;13.90;94.10;;;;;;4998294;28;20188;-95
2023/10/07 14:23:51;;;;;;;19.00;17.90;;;13.90;94.20;;;;;;4998253;28;20233;-94
2023/10/07 14:26:37;;;;;;;28.35;26.67;;;14.00;94.20;;;;;;4998337;28;20171;-94
2023/10/07 14:29:05;;;;;;;30.17;28.05;;;13.90;94.20;;;;;;4997710;28;20211;-94
2023/10/07 14:31:34;;;;;;;31.30;29.20;;;13.90;94.30;;;;;;4998223;28;20184;-93
2023/10/07 14:34:07;;;;;;;32.47;30.13;;;14.00;94.20;;;;;;4998102;28;20199;-95
2023/10/07 14:36:36;;;;;;;27.98;26.23;;;13.90;94.20;;;;;;4998047;28;20207;-95
2023/10/07 14:39:22;;;;;;;29.20;27.48;;;14.00;94.10;;;;;;4997824;28;20158;-95
2023/10/07 14:41:51;;;;;;;19.08;17.77;;;13.90;94.00;;;;;;4998068;28;20167;-94
2023/10/07 14:44:25;;;;;;;17.88;16.60;;;13.90;94.10;;;;;;4997666;28;20187;-95
2023/10/07 14:46:54;;;;;;;19.27;17.98;;;13.80;93.90;;;;;;4997853;28;20166;-95
2023/10/07 14:49:23;;;;;;;21.40;19.90;;;13.80;93.80;;;;;;4997810;28;20168;-95
2023/10/07 14:52:01;;;;;;;23.60;22.02;;;13.70;93.80;;;;;;4997771;28;20166;-95
2023/10/07 14:54:27;;;;;;;23.70;21.90;;;13.70;93.80;;;;;;4997673;28;20178;-96
2023/10/07 14:56:55;;;;;;;23.08;21.40;;;13.70;93.80;;;;;;4997638;28;20183;-95
2023/10/07 14:59:21;;;;;;;23.23;21.63;;;13.60;93.70;;;;;;4997635;28;20164;-95
2023/10/07 15:01:47;;;;;;;23.17;21.52;;;13.70;93.80;;;;;;4997508;28;20167;-94
2023/10/07 15:04:17;;;;;;;21.88;20.52;;;13.70;93.80;;;;;;4997464;28;20206;-94
2023/10/07 15:06:43;;;;;;;21.35;20.05;;;13.70;93.80;;;;;;4997058;28;20158;-95
2023/10/07 15:09:08;;;;;;;22.00;20.60;;;13.70;93.80;;;;;;4997392;28;20163;-94
2023/10/07 15:11:34;;;;;;;21.48;19.77;;;13.60;93.70;;;;;;4997442;28;20160;-93
2023/10/07 15:14:02;;;;;;;21.80;20.25;;;13.60;93.70;;;;;;4995721;28;20206;-94
2023/10/07 15:16:28;;;;;;;21.48;19.77;;;13.60;93.70;;;;;;4992857;28;20187;-94
2023/10/07 15:18:54;;;;;;;21.42;19.75;;;13.50;93.70;;;;;;4996918;28;20159;-95
2023/10/07 15:21:21;;;;;;;21.65;19.75;;;13.50;93.70;;;;;;4981087;28;20278;-93
2023/10/07 15:23:47;;;;;;;20.95;19.55;;;13.50;93.80;;;;;;4997148;28;20156;-92
2023/10/07 15:26:16;;;;;;;21.17;19.65;;;13.60;93.70;;;;;;4997140;28;20179;-92
2023/10/07 15:44:34;;;;;;;21.40;19.90;;;13.20;93.60;;;;;;545165;26;20462;-91
2023/10/07 15:46:59;;;;;;;19.58;18.20;;;13.20;93.70;;;;;;5018523;28;20211;-91
2023/10/07 15:49:25;;;;;;;20.08;18.67;;;13.20;93.70;;;;;;5019000;28;20185;-92
2023/10/07 15:51:52;;;;;;;22.63;20.83;;;13.20;93.60;;;;;;5017746;28;20194;-91
2023/10/07 15:54:18;;;;;;;22.90;21.17;;;13.10;93.50;;;;;;5019139;28;20213;-91
2023/10/07 15:56:43;;;;;;;24.47;22.77;;;13.00;93.50;;;;;;5016019;28;20173;-89
2023/10/07 15:59:10;;;;;;;24.70;22.70;;;12.90;93.40;;;;;;5018676;28;20165;-92
2023/10/07 16:01:43;;;;;;;37.93;35.03;;;12.80;93.30;;;;;;5019012;28;20281;-93
2023/10/07 16:04:11;;;;;;;37.50;34.70;;;12.70;93.30;;;;;;5018570;28;20189;-92
2023/10/07 16:06:38;;;;;;;38.10;34.93;;;12.60;93.30;;;;;;5018035;28;20241;-93
2023/10/07 16:09:12;;;;;;;33.57;31.20;;;12.60;93.50;;;;;;5018422;28;20170;-92
2023/10/07 16:11:39;;;;;;;34.30;31.60;;;12.50;93.50;;;;;;5019218;28;20189;-92
2023/10/07 16:14:05;;;;;;;34.10;31.23;;;12.40;93.60;;;;;;5019023;28;20209;-91
2023/10/07 16:16:32;;;;;;;24.73;22.50;;;12.40;93.70;;;;;;5019107;28;20204;-91
2023/10/07 16:18:58;;;;;;;22.27;20.53;;;12.40;93.80;;;;;;5018740;28;20194;-89
2023/10/07 16:21:24;;;;;;;24.80;22.90;;;12.40;93.80;;;;;;5018915;28;20261;-91
2023/10/07 16:23:51;;;;;;;29.90;27.47;;;12.30;93.90;;;;;;5019499;28;20162;-91
2023/10/07 16:26:19;;;;;;;32.90;30.90;;;12.30;93.90;;;;;;5019451;28;20162;-90
2023/10/07 16:28:46;;;;;;;23.90;21.97;;;12.30;94.00;;;;;;5019475;28;20147;-89
2023/10/07 16:31:12;;;;;;;24.47;22.67;;;12.30;94.10;;;;;;5018937;28;20166;-89
2023/10/07 16:33:38;;;;;;;34.70;31.90;;;12.30;94.10;;;;;;5018940;28;20166;-90
2023/10/07 16:36:06;;;;;;;33.03;30.67;;;12.30;94.20;;;;;;5018877;28;20158;-92
2023/10/07 16:38:41;;;;;;;33.03;30.53;;;12.30;94.30;;;;;;5018894;28;20150;-92
2023/10/07 16:41:08;;;;;;;22.30;20.40;;;12.30;94.30;;;;;;5018863;28;20201;-90
2023/10/07 16:43:36;;;;;;;20.90;19.27;;;12.30;94.40;;;;;;5018741;28;20162;-89
2023/10/07 16:46:05;;;;;;;30.57;28.60;;;12.30;94.40;;;;;;5018655;28;20186;-92
2023/10/07 16:48:34;;;;;;;30.40;28.30;;;12.40;94.50;;;;;;5018808;28;20165;-89
2023/10/07 16:51:04;;;;;;;27.20;25.20;;;12.40;94.50;;;;;;5018793;28;20158;-89
2023/10/07 16:53:30;;;;;;;19.87;18.57;;;12.40;94.50;;;;;;5018780;28;20173;-89
2023/10/07 16:55:58;;;;;;;20.40;19.10;;;12.40;94.50;;;;;;5018653;28;20217;-90
2023/10/07 16:58:24;;;;;;;21.73;20.23;;;12.40;94.50;;;;;;5018691;28;20158;-91
2023/10/07 17:00:56;;;;;;;21.42;19.80;;;12.30;94.40;;;;;;5017647;28;20446;-90
2023/10/07 17:03:23;;;;;;;23.37;21.73;;;11.80;94.20;;;;;;5018709;28;20162;-90
2023/10/07 17:05:51;;;;;;;22.90;21.20;;;11.70;94.20;;;;;;5018671;28;20197;-90
2023/10/07 17:08:18;;;;;;;22.63;21.03;;;11.60;94.20;;;;;;5019137;28;20151;-91
2023/10/07 17:10:44;;;;;;;21.40;19.90;;;11.60;94.30;;;;;;5018509;28;20170;-91
2023/10/07 17:13:10;;;;;;;21.57;19.97;;;11.50;94.30;;;;;;5018598;28;20154;-90
2023/10/07 17:15:43;;;;;;;20.33;18.93;;;11.50;94.40;;;;;;5018490;28;20178;-93
2023/10/07 17:18:10;;;;;;;20.60;19.20;;;11.50;94.50;;;;;;5018523;28;20150;-91
2023/10/07 17:20:37;;;;;;;19.60;18.20;;;11.50;94.60;;;;;;5018371;28;20214;-91
2023/10/07 17:23:03;;;;;;;20.47;18.67;;;11.50;94.60;;;;;;5018429;28;20162;-90
2023/10/07 17:25:30;;;;;;;21.87;20.23;;;11.30;94.60;;;;;;5018316;28;20219;-93
2023/10/07 17:27:56;;;;;;;21.60;19.97;;;11.40;94.70;;;;;;5018264;28;20161;-90
2023/10/07 17:30:22;;;;;;;20.47;18.87;;;11.40;94.70;;;;;;5019156;28;20178;-92
2023/10/07 17:32:51;;;;;;;21.07;19.67;;;11.40;94.80;;;;;;5022044;28;20154;-93
2023/10/07 17:35:17;;;;;;;21.13;19.67;;;11.40;94.80;;;;;;5021983;28;20192;-91
2023/10/07 17:37:43;;;;;;;20.70;19.20;;;11.30;94.80;;;;;;5021813;28;20186;-91
2023/10/07 17:40:12;;;;;;;20.30;18.80;;;11.30;94.80;;;;;;5005851;28;20217;-89
2023/10/07 17:42:41;;;;;;;20.63;19.23;;;11.30;94.90;;;;;;4995793;28;20181;-91
2023/10/07 17:45:14;;;;;;;19.93;18.50;;;11.40;95.00;;;;;;4996895;28;20218;-91
2023/10/07 17:47:41;;;;;;;20.43;18.93;;;11.50;95.00;;;;;;4996034;28;20178;-90
2023/10/07 17:50:09;;;;;;;19.73;18.33;;;11.50;95.00;;;;;;4997325;28;20182;-90
2023/10/07 17:52:36;;;;;;;19.50;18.20;;;11.50;95.10;;;;;;4996073;28;20232;-89
2023/10/07 17:55:03;;;;;;;19.90;18.50;;;11.60;95.00;;;;;;4995789;28;20821;-90
2023/10/07 17:57:29;;;;;;;19.30;17.93;;;11.60;95.10;;;;;;4996089;28;20194;-90
2023/10/07 17:59:55;;;;;;;20.03;18.63;;;11.60;95.00;;;;;;4995555;28;20231;-92
2023/10/07 18:02:20;;;;;;;19.50;17.83;;;11.70;95.10;;;;;;4995670;28;20193;-90
2023/10/07 18:04:49;;;;;;;19.63;18.13;;;11.80;95.10;;;;;;4995506;28;20242;-90
2023/10/07 18:07:16;;;;;;;18.67;17.20;;;11.80;95.10;;;;;;4995493;28;20185;-91
2023/10/07 18:09:42;;;;;;;20.63;18.67;;;11.80;95.00;;;;;;4997466;28;20216;-92
2023/10/07 18:12:08;;;;;;;18.43;17.17;;;11.70;94.90;;;;;;4998778;28;20181;-91
2023/10/07 18:14:35;;;;;;;19.60;18.10;;;11.70;94.90;;;;;;4996174;28;20202;-91
2023/10/07 18:17:01;;;;;;;19.97;18.50;;;11.70;94.90;;;;;;4996602;28;20225;-92
2023/10/07 18:19:27;;;;;;;18.67;16.97;;;11.80;95.00;;;;;;4995520;28;20654;-92
2023/10/07 18:21:53;;;;;;;18.83;17.30;;;11.90;94.90;;;;;;4995730;28;20181;-92
2023/10/07 18:24:19;;;;;;;19.50;17.50;;;11.90;94.90;;;;;;4995450;28;20224;-92
2023/10/07 18:26:45;;;;;;;17.87;16.40;;;11.80;94.80;;;;;;4995492;28;20788;-92
2023/10/07 18:29:10;;;;;;;18.67;16.97;;;11.80;94.80;;;;;;4995703;28;20261;-91
2023/10/07 18:31:36;;;;;;;18.40;16.50;;;11.90;94.80;;;;;;4995668;28;20205;-91
2023/10/07 18:34:04;;;;;;;18.20;16.50;;;12.00;94.80;;;;;;4996386;28;20190;-91
2023/10/07 18:36:32;;;;;;;17.37;15.83;;;12.00;94.80;;;;;;4994948;28;20208;-91
2023/10/07 18:38:59;;;;;;;20.00;16.80;;;11.90;94.50;;;;;;4995150;28;20279;-92
2023/10/07 18:41:25;;;;;;;18.03;16.33;;;11.90;94.60;;;;;;4994355;28;20209;-92
2023/10/07 18:43:50;;;;;;;19.17;16.47;;;11.90;94.50;;;;;;4994247;28;20174;-92
2023/10/07 18:46:16;;;;;;;18.17;16.37;;;12.00;94.60;;;;;;4994936;28;20205;-91
2023/10/07 18:48:42;;;;;;;18.00;16.20;;;12.00;94.40;;;;;;4996301;28;20174;-90
2023/10/07 18:51:08;;;;;;;18.27;16.60;;;12.10;94.50;;;;;;4995525;28;20279;-90
2023/10/07 18:53:34;;;;;;;25.20;22.60;;;12.00;94.30;;;;;;4996586;28;20206;-92
2023/10/07 18:56:01;;;;;;;25.17;22.80;;;11.80;94.20;;;;;;4995147;28;20248;-92
2023/10/07 18:58:27;;;;;;;25.23;22.87;;;11.90;94.30;;;;;;4996197;28;20180;-92
2023/10/07 19:00:54;;;;;;;24.53;22.80;;;11.90;94.10;;;;;;4994568;28;20579;-92
2023/10/07 19:03:21;;;;;;;25.47;23.37;;;11.90;94.20;;;;;;4994366;28;20615;-92
2023/10/07 19:05:47;;;;;;;25.37;23.10;;;12.00;94.30;;;;;;4994387;28;20225;-92
2023/10/07 19:08:12;;;;;;;24.00;22.10;;;11.90;94.20;;;;;;4995911;28;20233;-91
2023/10/07 19:10:41;;;;;;;24.60;22.37;;;12.00;94.20;;;;;;4996216;28;20555;-91
2023/10/07 19:13:10;;;;;;;24.90;23.07;;;12.10;94.20;;;;;;4994842;28;20178;-91
2023/10/07 19:15:43;;;;;;;24.40;22.63;;;12.00;94.10;;;;;;4995497;28;20681;-91
2023/10/07 19:18:09;;;;;;;25.10;23.03;;;12.00;94.10;;;;;;4994453;28;20697;-91
2023/10/07 19:20:35;;;;;;;25.27;23.33;;;11.90;94.00;;;;;;4995605;28;20206;-93
2023/10/07 19:23:00;;;;;;;26.63;24.60;;;11.90;93.90;;;;;;4994514;28;20657;-92
2023/10/07 19:25:26;;;;;;;19.47;17.70;;;11.90;93.90;;;;;;4993742;28;20697;-93
2023/10/07 19:27:52;;;;;;;19.23;17.47;;;11.90;93.90;;;;;;4994182;28;20186;-93
2023/10/07 19:30:20;;;;;;;25.80;23.97;;;12.00;93.90;;;;;;4994052;28;20178;-92
2023/10/07 19:32:46;;;;;;;24.53;22.83;;;11.90;93.90;;;;;;4993729;28;20181;-92
2023/10/07 19:35:12;;;;;;;27.70;25.17;;;12.00;93.90;;;;;;4993636;28;20212;-92
2023/10/07 19:37:38;;;;;;;19.67;18.07;;;12.00;93.80;;;;;;4993990;28;20189;-93
2023/10/07 19:40:04;;;;;;;19.73;18.17;;;12.00;93.80;;;;;;4995132;28;20210;-91
2023/10/07 19:42:30;;;;;;;26.07;24.00;;;12.00;93.80;;;;;;4993428;28;20173;-91
2023/10/07 19:44:55;;;;;;;25.17;23.40;;;12.00;93.80;;;;;;4994198;28;20578;-93
2023/10/07 19:47:21;;;;;;;19.40;18.00;;;12.00;93.80;;;;;;4993929;28;20181;-92
2023/10/07 19:49:46;;;;;;;20.93;19.20;;;12.00;93.80;;;;;;4994187;28;20276;-93
2023/10/07 19:52:13;;;;;;;20.53;18.73;;;11.70;93.50;;;;;;4994292;28;20664;-93
2023/10/07 19:54:39;;;;;;;20.87;18.80;;;11.80;93.60;;;;;;4994499;28;20194;-93
2023/10/07 19:57:05;;;;;;;20.00;18.30;;;11.80;93.70;;;;;;4994707;28;20661;-94
2023/10/07 19:59:30;;;;;;;20.90;19.23;;;11.90;93.70;;;;;;4993480;28;20178;-94
2023/10/07 20:01:56;;;;;;;20.93;18.97;;;11.90;93.60;;;;;;4994854;28;20186;-92
2023/10/07 20:04:22;;;;;;;20.50;18.70;;;11.90;93.70;;;;;;4994377;28;20200;-91
2023/10/07 20:06:48;;;;;;;20.43;18.63;;;12.00;93.70;;;;;;4993676;28;20182;-92
2023/10/07 20:09:18;;;;;;;20.87;18.30;;;11.90;93.60;;;;;;4993205;28;20540;-91
2023/10/07 20:11:44;;;;;;;20.93;19.10;;;11.90;93.70;;;;;;4993048;28;20173;-91
2023/10/07 20:14:10;;;;;;;21.30;19.40;;;11.90;93.60;;;;;;4993192;28;20194;-90
2023/10/07 20:16:35;;;;;;;20.87;19.07;;;11.70;93.30;;;;;;4992796;28;20217;-92
2023/10/07 20:19:03;;;;;;;23.17;20.97;;;11.60;93.40;;;;;;4992929;28;20209;-91
2023/10/07 20:21:29;;;;;;;22.87;20.80;;;11.50;93.50;;;;;;4992877;28;20198;-93
2023/10/07 20:23:54;;;;;;;22.50;20.60;;;11.40;93.50;;;;;;4992873;28;20181;-92
2023/10/07 20:26:22;;;;;;;24.10;21.83;;;11.30;93.60;;;;;;4995948;28;20177;-92
2023/10/07 20:28:48;;;;;;;21.60;19.73;;;11.30;93.60;;;;;;4992803;28;20665;-92
2023/10/07 20:31:17;;;;;;;21.53;19.70;;;11.20;93.70;;;;;;4993372;28;20182;-92
2023/10/07 20:33:43;;;;;;;21.27;19.30;;;11.20;93.80;;;;;;4992754;28;20609;-90
2023/10/07 20:36:15;;;;;;;22.73;19.60;;;11.50;94.00;;;;;;4993306;28;20699;-91
2023/10/07 20:38:43;;;;;;;20.10;18.40;;;11.50;94.00;;;;;;4992946;28;20569;-92
2023/10/07 20:41:10;;;;;;;19.93;18.07;;;11.50;93.90;;;;;;4992903;28;20210;-90
2023/10/07 20:43:36;;;;;;;19.60;17.63;;;11.60;94.00;;;;;;4992584;28;20182;-92
2023/10/07 20:46:04;;;;;;;18.50;16.80;;;11.60;93.80;;;;;;4992655;28;20219;-91
2023/10/07 20:48:31;;;;;;;19.37;17.30;;;11.60;94.00;;;;;;4992603;28;20181;-90
2023/10/07 20:51:04;;;;;;;18.90;17.20;;;11.60;93.90;;;;;;4992587;28;20192;-92
2023/10/07 20:53:31;;;;;;;19.20;17.30;;;11.60;93.90;;;;;;4992604;28;20765;-91
2023/10/07 20:55:57;;;;;;;20.73;18.47;;;11.60;93.90;;;;;;4992978;28;20252;-91
2023/10/07 20:58:25;;;;;;;22.93;19.47;;;11.50;93.80;;;;;;4992477;28;20177;-91
2023/10/07 21:00:51;;;;;;;20.93;18.77;;;11.30;93.70;;;;;;4992481;28;20201;-91
2023/10/07 21:03:17;;;;;;;22.60;18.57;;;11.30;93.80;;;;;;4992413;28;20182;-91
2023/10/07 21:05:42;;;;;;;22.90;18.67;;;11.20;93.70;;;;;;4994013;28;20677;-90
2023/10/07 21:08:08;;;;;;;24.13;18.37;;;11.20;93.80;;;;;;4996418;28;20174;-92
2023/10/07 21:10:40;;;;;;;21.53;18.10;;;11.20;93.70;;;;;;4996404;28;20182;-91
2023/10/07 21:13:06;;;;;;;20.23;17.17;;;11.20;93.80;;;;;;4997540;28;20182;-91
2023/10/07 21:15:35;;;;;;;24.50;17.77;;;11.20;93.90;;;;;;4996346;28;20692;-91
2023/10/07 21:18:01;;;;;;;23.83;17.43;;;11.20;93.90;;;;;;4998376;28;20186;-91
2023/10/07 21:20:33;;;;;;;27.27;17.17;;;11.20;93.90;;;;;;4997145;28;20194;-90
2023/10/07 21:22:58;;;;;;;20.53;17.17;;;11.30;93.90;;;;;;4996027;28;20166;-90
2023/10/07 21:25:25;;;;;;;19.83;17.43;;;11.20;93.90;;;;;;4995942;28;20209;-92
2023/10/07 21:27:51;;;;;;;22.27;16.67;;;11.20;93.90;;;;;;4996350;28;20600;-91
2023/10/07 21:30:16;;;;;;;19.47;17.50;;;11.10;93.90;;;;;;4996070;28;20177;-92
2023/10/07 21:32:42;;;;;;;21.10;17.60;;;11.20;94.00;;;;;;4996504;28;20178;-92
2023/10/07 21:35:09;;;;;;;25.63;17.50;;;11.30;94.10;;;;;;4996608;28;20198;-92
2023/10/07 21:37:35;;;;;;;19.90;16.63;;;11.30;94.10;;;;;;4996526;28;20189;-92
2023/10/07 21:40:04;;;;;;;27.70;25.30;;;11.40;94.20;;;;;;4996371;28;20202;-93
2023/10/07 21:42:29;;;;;;;28.40;25.60;;;11.50;94.20;;;;;;4997424;28;20173;-92
2023/10/07 21:44:55;;;;;;;29.47;26.43;;;11.30;94.20;;;;;;4995989;28;20201;-92
2023/10/07 21:47:20;;;;;;;26.77;24.10;;;11.30;94.30;;;;;;4997284;28;20242;-91
2023/10/07 21:49:46;;;;;;;29.20;26.40;;;11.30;94.40;;;;;;4995792;28;20225;-91
2023/10/07 21:52:11;;;;;;;28.63;25.87;;;11.30;94.50;;;;;;4995962;28;20185;-91
2023/10/07 21:54:37;;;;;;;28.90;26.33;;;11.40;94.50;;;;;;4995751;28;20210;-91
2023/10/07 21:57:04;;;;;;;32.10;27.17;;;11.30;94.50;;;;;;4995607;28;20190;-90